sensor_id;sensor_type;location;lat;lon;timestamp;P1;durP1;ratioP1;P2;durP2;ratioP2
46078;SDS011;31820;51.880;-0.518;2022-12-13T00:00:43;4.97;;;3.75;;
46078;SDS011;31820;51.880;-0.518;2022-12-13T00:03:09;6.88;;;3.92;;
46078;SDS011;31820;51.880;-0.518;2022-12-13T00:05:41;4.90;;;3.60;;
46078;SDS011;31820;51.880;-0.518;2022-12-13T00:08:07;5.28;;;3.80;;
46078;SDS011;31820;51.880;-0.518;2022-12-13T00:10:32;5.43;;;3.95;;
46078;SDS011;31820;51.880;-0.518;2022-12-13T00:12:58;4.95;;;3.70;;
46078;SDS011;31820;51.880;-0.518;2022-12-13T00:15:23;4.93;;;3.70;;
46078;SDS011;31820;51.880;-0.518;2022-12-13T00:17:49;5.03;;;3.55;;
46078;SDS011;31820;51.880;-0.518;2022-12-13T00:20:14;5.43;;;3.85;;
46078;SDS011;31820;51.880;-0.518;2022-12-13T00:22:40;5.07;;;4.07;;
46078;SDS011;31820;51.880;-0.518;2022-12-13T00:25:05;4.93;;;3.70;;
46078;SDS011;31820;51.880;-0.518;2022-12-13T00:27:31;4.53;;;3.47;;
46078;SDS011;31820;51.880;-0.518;2022-12-13T00:29:56;4.88;;;3.63;;
46078;SDS011;31820;51.880;-0.518;2022-12-13T00:32:22;4.85;;;3.53;;
46078;SDS011;31820;51.880;-0.518;2022-12-13T00:34:47;4.82;;;3.85;;
46078;SDS011;31820;51.880;-0.518;2022-12-13T00:37:13;5.28;;;3.80;;
46078;SDS011;31820;51.880;-0.518;2022-12-13T00:39:38;5.80;;;3.90;;
46078;SDS011;31820;51.880;-0.518;2022-12-13T00:42:04;5.43;;;3.65;;
46078;SDS011;31820;51.880;-0.518;2022-12-13T00:44:29;5.43;;;3.72;;
46078;SDS011;31820;51.880;-0.518;2022-12-13T00:46:55;4.88;;;3.90;;
46078;SDS011;31820;51.880;-0.518;2022-12-13T00:49:21;4.72;;;3.40;;
46078;SDS011;31820;51.880;-0.518;2022-12-13T00:51:46;4.20;;;3.40;;
46078;SDS011;31820;51.880;-0.518;2022-12-13T00:54:13;5.32;;;3.45;;
46078;SDS011;31820;51.880;-0.518;2022-12-13T00:56:40;4.20;;;3.35;;
46078;SDS011;31820;51.880;-0.518;2022-12-13T00:59:05;4.63;;;3.63;;
46078;SDS011;31820;51.880;-0.518;2022-12-13T01:01:32;4.88;;;3.60;;
46078;SDS011;31820;51.880;-0.518;2022-12-13T01:04:04;4.72;;;3.50;;
46078;SDS011;31820;51.880;-0.518;2022-12-13T01:06:43;4.90;;;3.47;;
46078;SDS011;31820;51.880;-0.518;2022-12-13T01:09:14;5.03;;;3.72;;
46078;SDS011;31820;51.880;-0.518;2022-12-13T01:11:42;4.80;;;3.78;;
46078;SDS011;31820;51.880;-0.518;2022-12-13T01:14:08;5.30;;;3.97;;
46078;SDS011;31820;51.880;-0.518;2022-12-13T01:16:34;5.03;;;3.65;;
46078;SDS011;31820;51.880;-0.518;2022-12-13T01:18:59;4.78;;;3.70;;
46078;SDS011;31820;51.880;-0.518;2022-12-13T01:21:25;5.53;;;3.53;;
46078;SDS011;31820;51.880;-0.518;2022-12-13T01:23:50;4.95;;;3.83;;
46078;SDS011;31820;51.880;-0.518;2022-12-13T01:26:17;5.30;;;3.28;;
46078;SDS011;31820;51.880;-0.518;2022-12-13T01:28:44;5.18;;;4.40;;
46078;SDS011;31820;51.880;-0.518;2022-12-13T01:31:12;4.75;;;3.35;;
46078;SDS011;31820;51.880;-0.518;2022-12-13T01:33:39;6.07;;;3.45;;
46078;SDS011;31820;51.880;-0.518;2022-12-13T01:36:06;4.00;;;3.33;;
46078;SDS011;31820;51.880;-0.518;2022-12-13T01:38:34;4.68;;;3.92;;
46078;SDS011;31820;51.880;-0.518;2022-12-13T01:41:00;4.18;;;3.20;;
46078;SDS011;31820;51.880;-0.518;2022-12-13T01:46:01;4.80;;;3.17;;
46078;SDS011;31820;51.880;-0.518;2022-12-13T01:48:28;6.13;;;3.85;;
46078;SDS011;31820;51.880;-0.518;2022-12-13T01:51:00;4.65;;;3.63;;
46078;SDS011;31820;51.880;-0.518;2022-12-13T01:53:28;6.25;;;3.92;;
46078;SDS011;31820;51.880;-0.518;2022-12-13T01:56:00;5.53;;;3.65;;
46078;SDS011;31820;51.880;-0.518;2022-12-13T01:58:30;3.80;;;2.97;;
46078;SDS011;31820;51.880;-0.518;2022-12-13T02:00:56;5.35;;;3.40;;
46078;SDS011;31820;51.880;-0.518;2022-12-13T02:03:24;5.13;;;3.58;;
46078;SDS011;31820;51.880;-0.518;2022-12-13T02:06:04;4.97;;;3.55;;
46078;SDS011;31820;51.880;-0.518;2022-12-13T02:08:34;6.10;;;3.45;;
46078;SDS011;31820;51.880;-0.518;2022-12-13T02:11:01;4.05;;;2.90;;
46078;SDS011;31820;51.880;-0.518;2022-12-13T02:13:28;5.67;;;3.60;;
46078;SDS011;31820;51.880;-0.518;2022-12-13T02:21:21;4.20;;;3.07;;
46078;SDS011;31820;51.880;-0.518;2022-12-13T02:32:07;4.65;;;3.97;;
46078;SDS011;31820;51.880;-0.518;2022-12-13T02:34:47;4.38;;;3.22;;
46078;SDS011;31820;51.880;-0.518;2022-12-13T02:37:24;5.28;;;3.63;;
46078;SDS011;31820;51.880;-0.518;2022-12-13T02:39:58;3.80;;;3.20;;
46078;SDS011;31820;51.880;-0.518;2022-12-13T02:43:12;5.75;;;3.28;;
46078;SDS011;31820;51.880;-0.518;2022-12-13T02:45:23;4.38;;;3.38;;
46078;SDS011;31820;51.880;-0.518;2022-12-13T02:48:09;4.40;;;3.30;;
46078;SDS011;31820;51.880;-0.518;2022-12-13T02:50:37;4.50;;;3.78;;
46078;SDS011;31820;51.880;-0.518;2022-12-13T02:53:05;5.07;;;3.58;;
46078;SDS011;31820;51.880;-0.518;2022-12-13T02:55:33;4.22;;;3.25;;
46078;SDS011;31820;51.880;-0.518;2022-12-13T02:58:00;4.10;;;3.28;;
46078;SDS011;31820;51.880;-0.518;2022-12-13T03:00:48;4.50;;;3.28;;
46078;SDS011;31820;51.880;-0.518;2022-12-13T03:03:25;4.20;;;3.40;;
46078;SDS011;31820;51.880;-0.518;2022-12-13T03:06:10;3.88;;;3.08;;
46078;SDS011;31820;51.880;-0.518;2022-12-13T03:08:57;4.07;;;3.20;;
46078;SDS011;31820;51.880;-0.518;2022-12-13T03:11:41;4.50;;;3.75;;
46078;SDS011;31820;51.880;-0.518;2022-12-13T03:14:29;5.55;;;3.40;;
46078;SDS011;31820;51.880;-0.518;2022-12-13T03:17:00;4.03;;;3.13;;
46078;SDS011;31820;51.880;-0.518;2022-12-13T03:19:29;4.40;;;3.38;;
46078;SDS011;31820;51.880;-0.518;2022-12-13T03:21:55;3.80;;;3.17;;
46078;SDS011;31820;51.880;-0.518;2022-12-13T03:24:20;4.78;;;3.85;;
46078;SDS011;31820;51.880;-0.518;2022-12-13T03:26:46;4.13;;;3.22;;
46078;SDS011;31820;51.880;-0.518;2022-12-13T03:29:13;4.15;;;3.47;;
46078;SDS011;31820;51.880;-0.518;2022-12-13T03:31:39;4.82;;;3.70;;
46078;SDS011;31820;51.880;-0.518;2022-12-13T03:34:04;4.85;;;3.42;;
46078;SDS011;31820;51.880;-0.518;2022-12-13T03:36:30;4.55;;;3.63;;
46078;SDS011;31820;51.880;-0.518;2022-12-13T03:38:56;4.53;;;3.63;;
46078;SDS011;31820;51.880;-0.518;2022-12-13T03:41:23;4.47;;;3.10;;
46078;SDS011;31820;51.880;-0.518;2022-12-13T03:44:02;4.50;;;3.28;;
46078;SDS011;31820;51.880;-0.518;2022-12-13T03:46:29;4.10;;;3.47;;
46078;SDS011;31820;51.880;-0.518;2022-12-13T03:48:54;4.28;;;3.20;;
46078;SDS011;31820;51.880;-0.518;2022-12-13T03:51:20;4.63;;;3.30;;
46078;SDS011;31820;51.880;-0.518;2022-12-13T03:53:45;4.53;;;3.45;;
46078;SDS011;31820;51.880;-0.518;2022-12-13T03:56:11;4.45;;;3.80;;
46078;SDS011;31820;51.880;-0.518;2022-12-13T03:58:37;3.85;;;3.20;;
46078;SDS011;31820;51.880;-0.518;2022-12-13T04:01:06;4.18;;;3.35;;
46078;SDS011;31820;51.880;-0.518;2022-12-13T04:03:34;3.70;;;3.08;;
46078;SDS011;31820;51.880;-0.518;2022-12-13T04:06:00;5.15;;;3.42;;
46078;SDS011;31820;51.880;-0.518;2022-12-13T04:08:25;4.22;;;3.33;;
46078;SDS011;31820;51.880;-0.518;2022-12-13T04:10:51;4.97;;;3.35;;
46078;SDS011;31820;51.880;-0.518;2022-12-13T04:13:16;3.80;;;3.17;;
46078;SDS011;31820;51.880;-0.518;2022-12-13T04:15:56;4.18;;;2.97;;
46078;SDS011;31820;51.880;-0.518;2022-12-13T04:18:22;4.45;;;3.30;;
46078;SDS011;31820;51.880;-0.518;2022-12-13T04:20:47;4.95;;;3.53;;
46078;SDS011;31820;51.880;-0.518;2022-12-13T04:23:13;5.80;;;3.40;;
46078;SDS011;31820;51.880;-0.518;2022-12-13T04:25:39;5.10;;;3.92;;
46078;SDS011;31820;51.880;-0.518;2022-12-13T04:28:06;3.97;;;3.28;;
46078;SDS011;31820;51.880;-0.518;2022-12-13T04:30:32;4.30;;;3.20;;
46078;SDS011;31820;51.880;-0.518;2022-12-13T04:32:58;4.05;;;3.08;;
46078;SDS011;31820;51.880;-0.518;2022-12-13T04:35:23;5.15;;;3.45;;
46078;SDS011;31820;51.880;-0.518;2022-12-13T04:37:49;4.15;;;3.40;;
46078;SDS011;31820;51.880;-0.518;2022-12-13T04:40:14;4.60;;;3.45;;
46078;SDS011;31820;51.880;-0.518;2022-12-13T04:42:40;4.28;;;3.33;;
46078;SDS011;31820;51.880;-0.518;2022-12-13T04:45:06;4.40;;;3.72;;
46078;SDS011;31820;51.880;-0.518;2022-12-13T04:47:32;4.20;;;3.17;;
46078;SDS011;31820;51.880;-0.518;2022-12-13T04:49:57;4.07;;;3.25;;
46078;SDS011;31820;51.880;-0.518;2022-12-13T04:52:23;4.95;;;3.92;;
46078;SDS011;31820;51.880;-0.518;2022-12-13T04:54:49;4.63;;;3.72;;
46078;SDS011;31820;51.880;-0.518;2022-12-13T04:57:14;4.57;;;3.45;;
46078;SDS011;31820;51.880;-0.518;2022-12-13T04:59:40;5.07;;;3.88;;
46078;SDS011;31820;51.880;-0.518;2022-12-13T05:02:07;4.72;;;3.65;;
46078;SDS011;31820;51.880;-0.518;2022-12-13T05:04:33;4.25;;;3.20;;
46078;SDS011;31820;51.880;-0.518;2022-12-13T05:06:59;4.90;;;3.42;;
46078;SDS011;31820;51.880;-0.518;2022-12-13T05:09:25;5.03;;;3.83;;
46078;SDS011;31820;51.880;-0.518;2022-12-13T05:11:50;4.43;;;3.50;;
46078;SDS011;31820;51.880;-0.518;2022-12-13T05:14:16;6.32;;;3.90;;
46078;SDS011;31820;51.880;-0.518;2022-12-13T05:16:41;5.18;;;4.00;;
46078;SDS011;31820;51.880;-0.518;2022-12-13T05:19:07;4.45;;;3.90;;
46078;SDS011;31820;51.880;-0.518;2022-12-13T05:21:32;4.28;;;3.40;;
46078;SDS011;31820;51.880;-0.518;2022-12-13T05:24:02;5.07;;;3.42;;
46078;SDS011;31820;51.880;-0.518;2022-12-13T05:26:27;4.40;;;3.45;;
46078;SDS011;31820;51.880;-0.518;2022-12-13T05:28:56;5.13;;;3.80;;
46078;SDS011;31820;51.880;-0.518;2022-12-13T05:31:23;6.80;;;4.15;;
46078;SDS011;31820;51.880;-0.518;2022-12-13T05:33:49;4.38;;;3.60;;
46078;SDS011;31820;51.880;-0.518;2022-12-13T05:36:18;5.03;;;4.00;;
46078;SDS011;31820;51.880;-0.518;2022-12-13T05:38:43;3.97;;;3.38;;
46078;SDS011;31820;51.880;-0.518;2022-12-13T05:41:14;4.32;;;3.40;;
46078;SDS011;31820;51.880;-0.518;2022-12-13T05:43:42;5.00;;;3.80;;
46078;SDS011;31820;51.880;-0.518;2022-12-13T05:46:07;4.10;;;3.50;;
46078;SDS011;31820;51.880;-0.518;2022-12-13T05:48:33;5.15;;;3.75;;
46078;SDS011;31820;51.880;-0.518;2022-12-13T05:50:58;3.95;;;3.25;;
46078;SDS011;31820;51.880;-0.518;2022-12-13T05:53:24;4.93;;;3.67;;
46078;SDS011;31820;51.880;-0.518;2022-12-13T05:55:49;4.57;;;3.58;;
46078;SDS011;31820;51.880;-0.518;2022-12-13T05:58:15;4.05;;;3.03;;
46078;SDS011;31820;51.880;-0.518;2022-12-13T06:00:41;4.43;;;3.15;;
46078;SDS011;31820;51.880;-0.518;2022-12-13T06:03:07;3.83;;;3.05;;
46078;SDS011;31820;51.880;-0.518;2022-12-13T06:05:32;5.43;;;3.35;;
46078;SDS011;31820;51.880;-0.518;2022-12-13T06:07:58;4.00;;;3.03;;
46078;SDS011;31820;51.880;-0.518;2022-12-13T06:10:24;4.55;;;3.60;;
46078;SDS011;31820;51.880;-0.518;2022-12-13T06:12:51;3.97;;;2.95;;
46078;SDS011;31820;51.880;-0.518;2022-12-13T06:15:16;5.10;;;3.80;;
46078;SDS011;31820;51.880;-0.518;2022-12-13T06:17:42;4.95;;;3.30;;
46078;SDS011;31820;51.880;-0.518;2022-12-13T06:20:07;5.10;;;3.40;;
46078;SDS011;31820;51.880;-0.518;2022-12-13T06:22:33;4.20;;;3.22;;
46078;SDS011;31820;51.880;-0.518;2022-12-13T06:24:59;4.75;;;3.38;;
46078;SDS011;31820;51.880;-0.518;2022-12-13T06:27:25;4.13;;;3.15;;
46078;SDS011;31820;51.880;-0.518;2022-12-13T06:29:51;4.85;;;3.53;;
46078;SDS011;31820;51.880;-0.518;2022-12-13T06:32:17;4.60;;;3.20;;
46078;SDS011;31820;51.880;-0.518;2022-12-13T06:34:42;4.75;;;3.28;;
46078;SDS011;31820;51.880;-0.518;2022-12-13T06:37:10;4.38;;;3.20;;
46078;SDS011;31820;51.880;-0.518;2022-12-13T06:39:37;4.10;;;3.33;;
46078;SDS011;31820;51.880;-0.518;2022-12-13T06:42:03;4.25;;;3.40;;
46078;SDS011;31820;51.880;-0.518;2022-12-13T06:44:30;4.82;;;3.20;;
46078;SDS011;31820;51.880;-0.518;2022-12-13T06:46:56;4.68;;;3.38;;
46078;SDS011;31820;51.880;-0.518;2022-12-13T06:49:21;4.20;;;3.20;;
46078;SDS011;31820;51.880;-0.518;2022-12-13T06:51:47;4.45;;;3.50;;
46078;SDS011;31820;51.880;-0.518;2022-12-13T06:54:12;5.30;;;3.15;;
46078;SDS011;31820;51.880;-0.518;2022-12-13T06:56:38;4.03;;;3.20;;
46078;SDS011;31820;51.880;-0.518;2022-12-13T06:59:03;3.80;;;2.78;;
46078;SDS011;31820;51.880;-0.518;2022-12-13T07:01:29;4.00;;;3.10;;
46078;SDS011;31820;51.880;-0.518;2022-12-13T07:03:54;3.80;;;3.10;;
46078;SDS011;31820;51.880;-0.518;2022-12-13T07:06:21;3.65;;;2.88;;
46078;SDS011;31820;51.880;-0.518;2022-12-13T07:08:51;4.40;;;2.90;;
46078;SDS011;31820;51.880;-0.518;2022-12-13T07:11:20;4.60;;;3.40;;
46078;SDS011;31820;51.880;-0.518;2022-12-13T07:13:49;4.32;;;2.90;;
46078;SDS011;31820;51.880;-0.518;2022-12-13T07:16:15;4.15;;;2.95;;
46078;SDS011;31820;51.880;-0.518;2022-12-13T07:18:41;4.25;;;3.33;;
46078;SDS011;31820;51.880;-0.518;2022-12-13T07:21:07;4.97;;;3.20;;
46078;SDS011;31820;51.880;-0.518;2022-12-13T07:23:34;3.72;;;2.92;;
46078;SDS011;31820;51.880;-0.518;2022-12-13T07:26:00;4.13;;;3.15;;
46078;SDS011;31820;51.880;-0.518;2022-12-13T07:28:26;4.20;;;3.17;;
46078;SDS011;31820;51.880;-0.518;2022-12-13T07:30:52;4.05;;;3.22;;
46078;SDS011;31820;51.880;-0.518;2022-12-13T07:33:17;5.13;;;3.22;;
46078;SDS011;31820;51.880;-0.518;2022-12-13T07:35:43;4.43;;;3.05;;
46078;SDS011;31820;51.880;-0.518;2022-12-13T07:38:09;4.28;;;3.17;;
46078;SDS011;31820;51.880;-0.518;2022-12-13T07:40:36;4.47;;;3.00;;
46078;SDS011;31820;51.880;-0.518;2022-12-13T07:43:03;4.07;;;2.80;;
46078;SDS011;31820;51.880;-0.518;2022-12-13T07:45:30;5.63;;;3.33;;
46078;SDS011;31820;51.880;-0.518;2022-12-13T07:47:55;4.30;;;3.30;;
46078;SDS011;31820;51.880;-0.518;2022-12-13T07:50:21;5.07;;;3.38;;
46078;SDS011;31820;51.880;-0.518;2022-12-13T07:52:47;4.53;;;3.35;;
46078;SDS011;31820;51.880;-0.518;2022-12-13T07:55:14;4.35;;;2.80;;
46078;SDS011;31820;51.880;-0.518;2022-12-13T07:57:40;4.93;;;3.40;;
46078;SDS011;31820;51.880;-0.518;2022-12-13T08:00:06;4.15;;;2.80;;
46078;SDS011;31820;51.880;-0.518;2022-12-13T08:02:32;3.63;;;2.92;;
46078;SDS011;31820;51.880;-0.518;2022-12-13T08:04:57;3.95;;;2.83;;
46078;SDS011;31820;51.880;-0.518;2022-12-13T08:07:23;4.82;;;2.92;;
46078;SDS011;31820;51.880;-0.518;2022-12-13T08:09:48;4.30;;;2.92;;
46078;SDS011;31820;51.880;-0.518;2022-12-13T08:12:14;4.13;;;2.60;;
46078;SDS011;31820;51.880;-0.518;2022-12-13T08:14:39;4.10;;;3.00;;
46078;SDS011;31820;51.880;-0.518;2022-12-13T08:17:04;4.85;;;2.60;;
46078;SDS011;31820;51.880;-0.518;2022-12-13T08:19:30;3.53;;;2.45;;
46078;SDS011;31820;51.880;-0.518;2022-12-13T08:21:55;5.10;;;2.78;;
46078;SDS011;31820;51.880;-0.518;2022-12-13T08:24:22;4.10;;;2.58;;
46078;SDS011;31820;51.880;-0.518;2022-12-13T08:26:49;3.88;;;2.40;;
46078;SDS011;31820;51.880;-0.518;2022-12-13T08:29:14;2.63;;;2.03;;
46078;SDS011;31820;51.880;-0.518;2022-12-13T08:31:40;3.25;;;2.38;;
46078;SDS011;31820;51.880;-0.518;2022-12-13T08:34:05;3.78;;;2.80;;
46078;SDS011;31820;51.880;-0.518;2022-12-13T08:36:31;3.55;;;2.35;;
46078;SDS011;31820;51.880;-0.518;2022-12-13T08:38:57;3.17;;;2.28;;
46078;SDS011;31820;51.880;-0.518;2022-12-13T08:41:23;3.42;;;2.40;;
46078;SDS011;31820;51.880;-0.518;2022-12-13T08:43:48;4.30;;;2.58;;
46078;SDS011;31820;51.880;-0.518;2022-12-13T08:46:14;2.95;;;2.15;;
46078;SDS011;31820;51.880;-0.518;2022-12-13T08:48:40;2.95;;;2.05;;
46078;SDS011;31820;51.880;-0.518;2022-12-13T08:51:06;4.97;;;2.63;;
46078;SDS011;31820;51.880;-0.518;2022-12-13T08:53:38;3.45;;;2.30;;
46078;SDS011;31820;51.880;-0.518;2022-12-13T08:56:04;4.32;;;1.67;;
46078;SDS011;31820;51.880;-0.518;2022-12-13T08:58:32;3.15;;;2.13;;
46078;SDS011;31820;51.880;-0.518;2022-12-13T09:00:57;3.22;;;2.28;;
46078;SDS011;31820;51.880;-0.518;2022-12-13T09:03:23;3.78;;;1.80;;
46078;SDS011;31820;51.880;-0.518;2022-12-13T09:05:49;2.67;;;1.85;;
46078;SDS011;31820;51.880;-0.518;2022-12-13T09:08:16;3.95;;;1.67;;
46078;SDS011;31820;51.880;-0.518;2022-12-13T09:10:42;4.32;;;2.03;;
46078;SDS011;31820;51.880;-0.518;2022-12-13T09:13:08;4.15;;;1.88;;
46078;SDS011;31820;51.880;-0.518;2022-12-13T09:15:33;2.67;;;1.58;;
46078;SDS011;31820;51.880;-0.518;2022-12-13T09:18:03;2.33;;;1.65;;
46078;SDS011;31820;51.880;-0.518;2022-12-13T09:20:28;2.83;;;1.90;;
46078;SDS011;31820;51.880;-0.518;2022-12-13T09:22:54;3.88;;;1.90;;
46078;SDS011;31820;51.880;-0.518;2022-12-13T09:25:19;3.05;;;1.85;;
46078;SDS011;31820;51.880;-0.518;2022-12-13T09:27:45;3.97;;;1.98;;
46078;SDS011;31820;51.880;-0.518;2022-12-13T09:30:10;3.05;;;2.10;;
46078;SDS011;31820;51.880;-0.518;2022-12-13T09:32:37;4.50;;;2.28;;
46078;SDS011;31820;51.880;-0.518;2022-12-13T09:35:04;3.13;;;1.65;;
46078;SDS011;31820;51.880;-0.518;2022-12-13T09:37:30;2.10;;;1.48;;
46078;SDS011;31820;51.880;-0.518;2022-12-13T09:39:56;2.50;;;1.60;;
46078;SDS011;31820;51.880;-0.518;2022-12-13T09:42:22;4.07;;;1.52;;
46078;SDS011;31820;51.880;-0.518;2022-12-13T09:44:54;4.57;;;1.80;;
46078;SDS011;31820;51.880;-0.518;2022-12-13T09:49:57;3.72;;;1.65;;
46078;SDS011;31820;51.880;-0.518;2022-12-13T09:52:26;2.83;;;1.40;;
46078;SDS011;31820;51.880;-0.518;2022-12-13T09:54:58;2.22;;;1.45;;
46078;SDS011;31820;51.880;-0.518;2022-12-13T09:57:27;3.08;;;1.70;;
46078;SDS011;31820;51.880;-0.518;2022-12-13T09:59:54;2.85;;;1.67;;
46078;SDS011;31820;51.880;-0.518;2022-12-13T10:02:24;2.22;;;1.50;;
46078;SDS011;31820;51.880;-0.518;2022-12-13T10:04:53;2.17;;;1.25;;
46078;SDS011;31820;51.880;-0.518;2022-12-13T10:07:35;2.05;;;1.40;;
46078;SDS011;31820;51.880;-0.518;2022-12-13T10:10:04;2.30;;;1.50;;
46078;SDS011;31820;51.880;-0.518;2022-12-13T10:12:30;2.45;;;1.65;;
46078;SDS011;31820;51.880;-0.518;2022-12-13T10:15:00;2.45;;;1.85;;
46078;SDS011;31820;51.880;-0.518;2022-12-13T10:17:30;2.42;;;1.48;;
46078;SDS011;31820;51.880;-0.518;2022-12-13T10:19:58;2.53;;;1.38;;
46078;SDS011;31820;51.880;-0.518;2022-12-13T10:22:24;2.42;;;1.50;;
46078;SDS011;31820;51.880;-0.518;2022-12-13T10:24:57;2.50;;;1.65;;
46078;SDS011;31820;51.880;-0.518;2022-12-13T10:27:27;2.60;;;1.40;;
46078;SDS011;31820;51.880;-0.518;2022-12-13T10:30:13;2.15;;;1.27;;
46078;SDS011;31820;51.880;-0.518;2022-12-13T10:37:53;1.90;;;1.30;;
46078;SDS011;31820;51.880;-0.518;2022-12-13T10:40:36;2.08;;;1.30;;
46078;SDS011;31820;51.880;-0.518;2022-12-13T10:45:41;2.92;;;1.40;;
46078;SDS011;31820;51.880;-0.518;2022-12-13T10:48:21;2.10;;;1.50;;
46078;SDS011;31820;51.880;-0.518;2022-12-13T10:50:54;2.47;;;1.50;;
46078;SDS011;31820;51.880;-0.518;2022-12-13T10:53:34;3.05;;;1.50;;
46078;SDS011;31820;51.880;-0.518;2022-12-13T10:56:03;3.33;;;1.30;;
46078;SDS011;31820;51.880;-0.518;2022-12-13T10:58:34;8.75;;;2.00;;
46078;SDS011;31820;51.880;-0.518;2022-12-13T11:01:10;2.65;;;1.38;;
46078;SDS011;31820;51.880;-0.518;2022-12-13T11:03:41;3.35;;;1.65;;
46078;SDS011;31820;51.880;-0.518;2022-12-13T11:08:40;5.10;;;1.63;;
46078;SDS011;31820;51.880;-0.518;2022-12-13T11:11:06;3.65;;;1.67;;
46078;SDS011;31820;51.880;-0.518;2022-12-13T11:19:16;3.75;;;1.60;;
46078;SDS011;31820;51.880;-0.518;2022-12-13T11:21:45;2.72;;;1.52;;
46078;SDS011;31820;51.880;-0.518;2022-12-13T11:24:19;5.35;;;2.00;;
46078;SDS011;31820;51.880;-0.518;2022-12-13T11:26:49;3.25;;;1.60;;
46078;SDS011;31820;51.880;-0.518;2022-12-13T11:38:31;3.25;;;1.38;;
46078;SDS011;31820;51.880;-0.518;2022-12-13T11:40:52;2.95;;;1.63;;
46078;SDS011;31820;51.880;-0.518;2022-12-13T11:43:30;3.83;;;2.00;;
46078;SDS011;31820;51.880;-0.518;2022-12-13T11:46:03;4.10;;;1.50;;
46078;SDS011;31820;51.880;-0.518;2022-12-13T11:48:39;3.08;;;1.75;;
46078;SDS011;31820;51.880;-0.518;2022-12-13T11:51:09;4.03;;;1.50;;
46078;SDS011;31820;51.880;-0.518;2022-12-13T11:56:24;2.47;;;1.40;;
46078;SDS011;31820;51.880;-0.518;2022-12-13T11:58:57;5.18;;;1.60;;
46078;SDS011;31820;51.880;-0.518;2022-12-13T12:01:28;3.55;;;1.77;;
46078;SDS011;31820;51.880;-0.518;2022-12-13T12:09:53;3.53;;;1.67;;
46078;SDS011;31820;51.880;-0.518;2022-12-13T12:12:31;2.63;;;1.90;;
46078;SDS011;31820;51.880;-0.518;2022-12-13T12:17:26;2.92;;;1.60;;
46078;SDS011;31820;51.880;-0.518;2022-12-13T12:19:53;2.63;;;1.65;;
46078;SDS011;31820;51.880;-0.518;2022-12-13T12:22:38;2.80;;;1.75;;
46078;SDS011;31820;51.880;-0.518;2022-12-13T12:28:03;2.90;;;1.38;;
46078;SDS011;31820;51.880;-0.518;2022-12-13T12:30:42;3.10;;;1.60;;
46078;SDS011;31820;51.880;-0.518;2022-12-13T12:44:19;2.25;;;1.38;;
46078;SDS011;31820;51.880;-0.518;2022-12-13T12:52:52;2.10;;;1.50;;
46078;SDS011;31820;51.880;-0.518;2022-12-13T12:58:33;3.38;;;1.80;;
46078;SDS011;31820;51.880;-0.518;2022-12-13T13:03:49;2.72;;;1.75;;
46078;SDS011;31820;51.880;-0.518;2022-12-13T13:06:22;3.55;;;1.92;;
46078;SDS011;31820;51.880;-0.518;2022-12-13T13:09:10;2.60;;;1.38;;
46078;SDS011;31820;51.880;-0.518;2022-12-13T13:11:38;3.08;;;1.73;;
46078;SDS011;31820;51.880;-0.518;2022-12-13T13:17:00;2.88;;;1.77;;
46078;SDS011;31820;51.880;-0.518;2022-12-13T13:19:48;2.97;;;1.65;;
46078;SDS011;31820;51.880;-0.518;2022-12-13T13:22:27;2.75;;;1.33;;
46078;SDS011;31820;51.880;-0.518;2022-12-13T13:27:44;3.42;;;1.92;;
46078;SDS011;31820;51.880;-0.518;2022-12-13T13:32:41;2.95;;;1.73;;
46078;SDS011;31820;51.880;-0.518;2022-12-13T13:38:03;2.88;;;1.88;;
46078;SDS011;31820;51.880;-0.518;2022-12-13T13:40:49;2.65;;;1.55;;
46078;SDS011;31820;51.880;-0.518;2022-12-13T13:43:15;3.55;;;2.15;;
46078;SDS011;31820;51.880;-0.518;2022-12-13T13:45:58;3.90;;;1.65;;
46078;SDS011;31820;51.880;-0.518;2022-12-13T13:56:44;3.72;;;2.03;;
46078;SDS011;31820;51.880;-0.518;2022-12-13T14:05:02;7.75;;;2.55;;
46078;SDS011;31820;51.880;-0.518;2022-12-13T14:10:24;4.78;;;2.88;;
46078;SDS011;31820;51.880;-0.518;2022-12-13T14:19:02;5.72;;;3.10;;
46078;SDS011;31820;51.880;-0.518;2022-12-13T14:29:58;7.18;;;4.00;;
46078;SDS011;31820;51.880;-0.518;2022-12-13T14:32:28;7.68;;;3.95;;
46078;SDS011;31820;51.880;-0.518;2022-12-13T14:35:00;6.72;;;4.03;;
46078;SDS011;31820;51.880;-0.518;2022-12-13T14:37:27;6.03;;;4.22;;
46078;SDS011;31820;51.880;-0.518;2022-12-13T14:39:57;8.00;;;4.25;;
46078;SDS011;31820;51.880;-0.518;2022-12-13T14:42:28;9.20;;;4.57;;
46078;SDS011;31820;51.880;-0.518;2022-12-13T14:47:49;7.90;;;4.50;;
46078;SDS011;31820;51.880;-0.518;2022-12-13T14:50:16;8.73;;;4.97;;
46078;SDS011;31820;51.880;-0.518;2022-12-13T14:52:42;8.13;;;4.88;;
46078;SDS011;31820;51.880;-0.518;2022-12-13T14:55:20;9.50;;;5.47;;
46078;SDS011;31820;51.880;-0.518;2022-12-13T15:00:27;8.20;;;5.35;;
46078;SDS011;31820;51.880;-0.518;2022-12-13T15:02:57;9.82;;;5.90;;
46078;SDS011;31820;51.880;-0.518;2022-12-13T15:05:25;9.63;;;6.03;;
46078;SDS011;31820;51.880;-0.518;2022-12-13T15:07:53;8.48;;;6.18;;
46078;SDS011;31820;51.880;-0.518;2022-12-13T15:10:21;9.90;;;6.35;;
46078;SDS011;31820;51.880;-0.518;2022-12-13T15:12:51;7.38;;;6.43;;
46078;SDS011;31820;51.880;-0.518;2022-12-13T15:15:26;8.48;;;6.65;;
46078;SDS011;31820;51.880;-0.518;2022-12-13T15:20:32;8.02;;;5.45;;
46078;SDS011;31820;51.880;-0.518;2022-12-13T15:23:44;9.32;;;6.38;;
46078;SDS011;31820;51.880;-0.518;2022-12-13T15:26:05;9.68;;;6.85;;
46078;SDS011;31820;51.880;-0.518;2022-12-13T15:28:32;7.88;;;6.15;;
46078;SDS011;31820;51.880;-0.518;2022-12-13T15:30:59;9.55;;;6.30;;
46078;SDS011;31820;51.880;-0.518;2022-12-13T15:33:27;9.27;;;6.00;;
46078;SDS011;31820;51.880;-0.518;2022-12-13T15:36:27;8.70;;;6.40;;
46078;SDS011;31820;51.880;-0.518;2022-12-13T15:41:30;9.35;;;6.53;;
46078;SDS011;31820;51.880;-0.518;2022-12-13T15:44:07;8.55;;;6.00;;
46078;SDS011;31820;51.880;-0.518;2022-12-13T15:46:45;9.30;;;6.35;;
46078;SDS011;31820;51.880;-0.518;2022-12-13T15:49:27;9.60;;;6.88;;
46078;SDS011;31820;51.880;-0.518;2022-12-13T15:52:04;9.23;;;6.55;;
46078;SDS011;31820;51.880;-0.518;2022-12-13T15:54:30;10.07;;;6.50;;
46078;SDS011;31820;51.880;-0.518;2022-12-13T15:59:37;8.05;;;6.43;;
46078;SDS011;31820;51.880;-0.518;2022-12-13T16:02:08;9.43;;;6.10;;
46078;SDS011;31820;51.880;-0.518;2022-12-13T16:04:39;12.07;;;6.57;;
46078;SDS011;31820;51.880;-0.518;2022-12-13T16:07:05;8.80;;;6.43;;
46078;SDS011;31820;51.880;-0.518;2022-12-13T16:09:32;9.25;;;6.30;;
46078;SDS011;31820;51.880;-0.518;2022-12-13T16:12:00;10.63;;;6.28;;
46078;SDS011;31820;51.880;-0.518;2022-12-13T16:19:51;9.18;;;6.47;;
46078;SDS011;31820;51.880;-0.518;2022-12-13T16:22:18;11.05;;;6.82;;
46078;SDS011;31820;51.880;-0.518;2022-12-13T16:27:12;8.35;;;5.85;;
46078;SDS011;31820;51.880;-0.518;2022-12-13T16:29:37;8.60;;;6.30;;
46078;SDS011;31820;51.880;-0.518;2022-12-13T16:32:03;9.30;;;5.82;;
46078;SDS011;31820;51.880;-0.518;2022-12-13T16:34:28;7.78;;;6.10;;
46078;SDS011;31820;51.880;-0.518;2022-12-13T16:36:54;8.55;;;6.30;;
46078;SDS011;31820;51.880;-0.518;2022-12-13T16:39:23;8.07;;;6.15;;
46078;SDS011;31820;51.880;-0.518;2022-12-13T16:41:49;8.10;;;6.32;;
46078;SDS011;31820;51.880;-0.518;2022-12-13T16:44:18;8.35;;;5.75;;
46078;SDS011;31820;51.880;-0.518;2022-12-13T16:47:07;10.35;;;6.60;;
46078;SDS011;31820;51.880;-0.518;2022-12-13T16:49:33;8.05;;;6.10;;
46078;SDS011;31820;51.880;-0.518;2022-12-13T16:51:59;10.02;;;6.57;;
46078;SDS011;31820;51.880;-0.518;2022-12-13T16:54:26;9.35;;;6.60;;
46078;SDS011;31820;51.880;-0.518;2022-12-13T16:56:52;10.85;;;7.00;;
46078;SDS011;31820;51.880;-0.518;2022-12-13T16:59:19;7.30;;;6.03;;
46078;SDS011;31820;51.880;-0.518;2022-12-13T17:01:47;7.75;;;6.38;;
46078;SDS011;31820;51.880;-0.518;2022-12-13T17:04:15;9.23;;;6.45;;
46078;SDS011;31820;51.880;-0.518;2022-12-13T17:06:43;7.28;;;6.07;;